sensor_id;sensor_type;location;lat;lon;timestamp;P1;durP1;ratioP1;P2;durP2;ratioP2
21769;SDS011;11046;49.558;8.674;2023-03-21T00:01:25;11.40;;;6.63;;
21769;SDS011;11046;49.558;8.674;2023-03-21T00:04:26;11.73;;;6.70;;
21769;SDS011;11046;49.558;8.674;2023-03-21T00:07:27;12.37;;;5.80;;
21769;SDS011;11046;49.558;8.674;2023-03-21T00:10:27;14.40;;;6.20;;
21769;SDS011;11046;49.558;8.674;2023-03-21T00:13:29;14.13;;;6.13;;
21769;SDS011;11046;49.558;8.674;2023-03-21T00:16:33;10.70;;;6.00;;
21769;SDS011;11046;49.558;8.674;2023-03-21T00:19:34;10.30;;;5.80;;
21769;SDS011;11046;49.558;8.674;2023-03-21T00:22:37;9.37;;;5.90;;
21769;SDS011;11046;49.558;8.674;2023-03-21T00:25:38;12.10;;;5.83;;
21769;SDS011;11046;49.558;8.674;2023-03-21T00:28:39;11.23;;;6.20;;
21769;SDS011;11046;49.558;8.674;2023-03-21T00:31:41;11.57;;;5.90;;
21769;SDS011;11046;49.558;8.674;2023-03-21T00:34:42;9.10;;;4.90;;
21769;SDS011;11046;49.558;8.674;2023-03-21T00:37:43;8.47;;;5.33;;
21769;SDS011;11046;49.558;8.674;2023-03-21T00:40:43;11.97;;;5.07;;
21769;SDS011;11046;49.558;8.674;2023-03-21T00:43:44;11.93;;;4.93;;
21769;SDS011;11046;49.558;8.674;2023-03-21T00:46:45;9.20;;;5.53;;
21769;SDS011;11046;49.558;8.674;2023-03-21T00:49:45;11.47;;;5.30;;
21769;SDS011;11046;49.558;8.674;2023-03-21T00:52:46;10.83;;;5.60;;
21769;SDS011;11046;49.558;8.674;2023-03-21T00:55:47;10.87;;;5.53;;
21769;SDS011;11046;49.558;8.674;2023-03-21T00:58:48;12.80;;;5.37;;
21769;SDS011;11046;49.558;8.674;2023-03-21T01:01:50;9.77;;;5.33;;
21769;SDS011;11046;49.558;8.674;2023-03-21T01:04:52;11.37;;;5.90;;
21769;SDS011;11046;49.558;8.674;2023-03-21T01:07:53;10.20;;;5.53;;
21769;SDS011;11046;49.558;8.674;2023-03-21T01:10:55;9.80;;;5.53;;
21769;SDS011;11046;49.558;8.674;2023-03-21T01:13:56;11.50;;;5.67;;
21769;SDS011;11046;49.558;8.674;2023-03-21T01:16:57;12.37;;;5.47;;
21769;SDS011;11046;49.558;8.674;2023-03-21T01:19:57;14.67;;;6.17;;
21769;SDS011;11046;49.558;8.674;2023-03-21T01:22:58;12.30;;;6.37;;
21769;SDS011;11046;49.558;8.674;2023-03-21T01:25:58;13.70;;;6.50;;
21769;SDS011;11046;49.558;8.674;2023-03-21T01:28:59;12.23;;;6.73;;
21769;SDS011;11046;49.558;8.674;2023-03-21T01:31:59;13.57;;;6.40;;
21769;SDS011;11046;49.558;8.674;2023-03-21T01:35:00;10.90;;;6.57;;
21769;SDS011;11046;49.558;8.674;2023-03-21T01:38:01;11.60;;;6.23;;
21769;SDS011;11046;49.558;8.674;2023-03-21T01:41:02;10.50;;;6.07;;
21769;SDS011;11046;49.558;8.674;2023-03-21T01:44:06;10.87;;;6.67;;
21769;SDS011;11046;49.558;8.674;2023-03-21T01:47:14;10.60;;;6.13;;
21769;SDS011;11046;49.558;8.674;2023-03-21T01:50:20;12.83;;;6.33;;
21769;SDS011;11046;49.558;8.674;2023-03-21T01:53:44;11.13;;;6.67;;
21769;SDS011;11046;49.558;8.674;2023-03-21T01:56:46;23.00;;;9.00;;
21769;SDS011;11046;49.558;8.674;2023-03-21T01:59:49;20.70;;;10.10;;
21769;SDS011;11046;49.558;8.674;2023-03-21T02:02:56;18.50;;;8.77;;
21769;SDS011;11046;49.558;8.674;2023-03-21T02:10:01;17.13;;;9.17;;
21769;SDS011;11046;49.558;8.674;2023-03-21T02:13:06;13.70;;;8.43;;
21769;SDS011;11046;49.558;8.674;2023-03-21T02:16:13;12.50;;;8.33;;
21769;SDS011;11046;49.558;8.674;2023-03-21T02:19:29;15.63;;;7.47;;
21769;SDS011;11046;49.558;8.674;2023-03-21T02:22:57;13.80;;;7.63;;
21769;SDS011;11046;49.558;8.674;2023-03-21T02:26:35;15.20;;;7.50;;
21769;SDS011;11046;49.558;8.674;2023-03-21T02:36:57;14.47;;;7.00;;
21769;SDS011;11046;49.558;8.674;2023-03-21T02:43:53;20.50;;;7.50;;
21769;SDS011;11046;49.558;8.674;2023-03-21T02:47:04;14.37;;;7.63;;
21769;SDS011;11046;49.558;8.674;2023-03-21T02:50:23;15.60;;;8.10;;
21769;SDS011;11046;49.558;8.674;2023-03-21T02:53:32;17.33;;;8.30;;
21769;SDS011;11046;49.558;8.674;2023-03-21T02:56:39;14.60;;;7.90;;
21769;SDS011;11046;49.558;8.674;2023-03-21T02:59:40;14.90;;;8.00;;
21769;SDS011;11046;49.558;8.674;2023-03-21T03:02:48;15.70;;;8.20;;
21769;SDS011;11046;49.558;8.674;2023-03-21T03:05:51;14.47;;;7.77;;
21769;SDS011;11046;49.558;8.674;2023-03-21T03:12:20;15.53;;;8.03;;
21769;SDS011;11046;49.558;8.674;2023-03-21T03:18:57;14.83;;;7.83;;
21769;SDS011;11046;49.558;8.674;2023-03-21T03:22:02;13.57;;;7.60;;
21769;SDS011;11046;49.558;8.674;2023-03-21T03:25:11;18.00;;;7.60;;
21769;SDS011;11046;49.558;8.674;2023-03-21T03:28:20;15.57;;;7.90;;
21769;SDS011;11046;49.558;8.674;2023-03-21T03:31:27;14.87;;;7.27;;
21769;SDS011;11046;49.558;8.674;2023-03-21T03:34:37;16.37;;;7.50;;
21769;SDS011;11046;49.558;8.674;2023-03-21T03:37:41;12.90;;;7.70;;
21769;SDS011;11046;49.558;8.674;2023-03-21T03:41:00;15.23;;;7.83;;
21769;SDS011;11046;49.558;8.674;2023-03-21T03:44:17;14.97;;;8.00;;
21769;SDS011;11046;49.558;8.674;2023-03-21T03:47:40;17.83;;;7.53;;
21769;SDS011;11046;49.558;8.674;2023-03-21T03:50:43;12.53;;;6.87;;
21769;SDS011;11046;49.558;8.674;2023-03-21T03:53:56;16.23;;;7.83;;
21769;SDS011;11046;49.558;8.674;2023-03-21T03:57:02;13.20;;;7.50;;
21769;SDS011;11046;49.558;8.674;2023-03-21T04:00:04;14.67;;;7.47;;
21769;SDS011;11046;49.558;8.674;2023-03-21T04:03:22;11.87;;;7.30;;
21769;SDS011;11046;49.558;8.674;2023-03-21T04:06:23;13.23;;;7.47;;
21769;SDS011;11046;49.558;8.674;2023-03-21T04:09:28;13.57;;;7.67;;
21769;SDS011;11046;49.558;8.674;2023-03-21T04:12:29;14.00;;;8.27;;
21769;SDS011;11046;49.558;8.674;2023-03-21T04:16:02;11.40;;;7.47;;
21769;SDS011;11046;49.558;8.674;2023-03-21T04:19:04;12.63;;;7.70;;
21769;SDS011;11046;49.558;8.674;2023-03-21T04:22:05;12.17;;;7.03;;
21769;SDS011;11046;49.558;8.674;2023-03-21T04:25:12;13.87;;;7.53;;
21769;SDS011;11046;49.558;8.674;2023-03-21T04:28:13;15.80;;;7.43;;
21769;SDS011;11046;49.558;8.674;2023-03-21T04:31:21;17.60;;;7.57;;
21769;SDS011;11046;49.558;8.674;2023-03-21T04:34:29;15.17;;;7.40;;
21769;SDS011;11046;49.558;8.674;2023-03-21T04:37:33;13.43;;;7.53;;
21769;SDS011;11046;49.558;8.674;2023-03-21T04:40:35;12.80;;;7.10;;
21769;SDS011;11046;49.558;8.674;2023-03-21T04:43:35;12.70;;;7.33;;
21769;SDS011;11046;49.558;8.674;2023-03-21T04:46:36;16.17;;;7.67;;
21769;SDS011;11046;49.558;8.674;2023-03-21T04:49:37;17.30;;;8.67;;
21769;SDS011;11046;49.558;8.674;2023-03-21T04:52:38;14.63;;;7.37;;
21769;SDS011;11046;49.558;8.674;2023-03-21T04:55:39;14.97;;;7.20;;
21769;SDS011;11046;49.558;8.674;2023-03-21T04:58:40;14.80;;;7.23;;
21769;SDS011;11046;49.558;8.674;2023-03-21T05:01:41;15.33;;;7.17;;
21769;SDS011;11046;49.558;8.674;2023-03-21T05:04:43;11.43;;;7.23;;
21769;SDS011;11046;49.558;8.674;2023-03-21T05:07:43;14.67;;;7.50;;
21769;SDS011;11046;49.558;8.674;2023-03-21T05:10:44;14.40;;;7.17;;
21769;SDS011;11046;49.558;8.674;2023-03-21T05:13:45;16.43;;;7.60;;
21769;SDS011;11046;49.558;8.674;2023-03-21T05:16:46;10.87;;;7.03;;
21769;SDS011;11046;49.558;8.674;2023-03-21T05:19:55;13.77;;;7.40;;
21769;SDS011;11046;49.558;8.674;2023-03-21T05:22:56;14.80;;;7.33;;
21769;SDS011;11046;49.558;8.674;2023-03-21T05:25:57;13.33;;;7.03;;
21769;SDS011;11046;49.558;8.674;2023-03-21T05:29:09;12.93;;;7.33;;
21769;SDS011;11046;49.558;8.674;2023-03-21T05:32:13;15.43;;;6.77;;
21769;SDS011;11046;49.558;8.674;2023-03-21T05:35:23;15.17;;;7.70;;
21769;SDS011;11046;49.558;8.674;2023-03-21T05:38:24;15.10;;;7.83;;
21769;SDS011;11046;49.558;8.674;2023-03-21T05:41:27;14.17;;;7.73;;
21769;SDS011;11046;49.558;8.674;2023-03-21T05:44:27;12.90;;;7.37;;
21769;SDS011;11046;49.558;8.674;2023-03-21T05:47:28;16.23;;;7.63;;
21769;SDS011;11046;49.558;8.674;2023-03-21T05:50:32;14.63;;;7.20;;
21769;SDS011;11046;49.558;8.674;2023-03-21T05:53:41;15.33;;;7.93;;
21769;SDS011;11046;49.558;8.674;2023-03-21T05:56:42;17.67;;;7.70;;
21769;SDS011;11046;49.558;8.674;2023-03-21T05:59:45;18.73;;;8.23;;
21769;SDS011;11046;49.558;8.674;2023-03-21T06:02:46;16.37;;;7.37;;
21769;SDS011;11046;49.558;8.674;2023-03-21T06:06:07;13.07;;;7.33;;
21769;SDS011;11046;49.558;8.674;2023-03-21T06:09:13;14.47;;;7.77;;
21769;SDS011;11046;49.558;8.674;2023-03-21T06:12:17;16.30;;;7.97;;
21769;SDS011;11046;49.558;8.674;2023-03-21T06:15:35;14.03;;;8.20;;
21769;SDS011;11046;49.558;8.674;2023-03-21T06:18:46;20.60;;;8.80;;
21769;SDS011;11046;49.558;8.674;2023-03-21T06:21:59;24.10;;;11.33;;
21769;SDS011;11046;49.558;8.674;2023-03-21T06:25:00;23.63;;;12.63;;
21769;SDS011;11046;49.558;8.674;2023-03-21T06:28:02;19.27;;;10.37;;
21769;SDS011;11046;49.558;8.674;2023-03-21T06:31:04;19.00;;;9.10;;
21769;SDS011;11046;49.558;8.674;2023-03-21T06:34:06;14.87;;;8.73;;
21769;SDS011;11046;49.558;8.674;2023-03-21T06:37:10;14.90;;;8.37;;
21769;SDS011;11046;49.558;8.674;2023-03-21T06:40:10;15.87;;;7.90;;
21769;SDS011;11046;49.558;8.674;2023-03-21T06:43:13;14.43;;;8.23;;
21769;SDS011;11046;49.558;8.674;2023-03-21T06:46:18;15.03;;;7.80;;
21769;SDS011;11046;49.558;8.674;2023-03-21T06:49:25;15.10;;;7.60;;
21769;SDS011;11046;49.558;8.674;2023-03-21T06:52:28;11.40;;;7.33;;
21769;SDS011;11046;49.558;8.674;2023-03-21T06:55:33;16.23;;;7.97;;
21769;SDS011;11046;49.558;8.674;2023-03-21T06:58:40;12.53;;;7.60;;
21769;SDS011;11046;49.558;8.674;2023-03-21T07:01:58;13.73;;;6.77;;
21769;SDS011;11046;49.558;8.674;2023-03-21T07:05:04;13.73;;;7.43;;
21769;SDS011;11046;49.558;8.674;2023-03-21T07:08:05;11.83;;;7.40;;
21769;SDS011;11046;49.558;8.674;2023-03-21T07:11:15;11.83;;;7.43;;
21769;SDS011;11046;49.558;8.674;2023-03-21T07:14:21;15.07;;;6.80;;
21769;SDS011;11046;49.558;8.674;2023-03-21T07:17:23;12.03;;;6.40;;
21769;SDS011;11046;49.558;8.674;2023-03-21T07:20:23;19.03;;;7.17;;
21769;SDS011;11046;49.558;8.674;2023-03-21T07:23:27;12.73;;;7.20;;
21769;SDS011;11046;49.558;8.674;2023-03-21T07:26:27;15.87;;;6.83;;
21769;SDS011;11046;49.558;8.674;2023-03-21T07:29:32;16.20;;;7.00;;
21769;SDS011;11046;49.558;8.674;2023-03-21T07:32:35;15.57;;;7.17;;
21769;SDS011;11046;49.558;8.674;2023-03-21T07:35:41;12.30;;;6.67;;
21769;SDS011;11046;49.558;8.674;2023-03-21T07:38:45;13.03;;;6.90;;
21769;SDS011;11046;49.558;8.674;2023-03-21T07:41:59;10.40;;;6.50;;
21769;SDS011;11046;49.558;8.674;2023-03-21T07:45:12;11.83;;;6.90;;
21769;SDS011;11046;49.558;8.674;2023-03-21T07:48:19;11.93;;;7.03;;
21769;SDS011;11046;49.558;8.674;2023-03-21T07:51:20;11.23;;;6.20;;
21769;SDS011;11046;49.558;8.674;2023-03-21T07:54:21;13.82;;;7.03;;
21769;SDS011;11046;49.558;8.674;2023-03-21T07:57:22;13.95;;;6.35;;
21769;SDS011;11046;49.558;8.674;2023-03-21T08:00:22;10.35;;;6.03;;
21769;SDS011;11046;49.558;8.674;2023-03-21T08:03:23;9.25;;;5.80;;
21769;SDS011;11046;49.558;8.674;2023-03-21T08:06:26;10.32;;;5.95;;
21769;SDS011;11046;49.558;8.674;2023-03-21T08:09:28;14.07;;;6.43;;
21769;SDS011;11046;49.558;8.674;2023-03-21T08:12:28;12.65;;;6.63;;
21769;SDS011;11046;49.558;8.674;2023-03-21T08:15:29;11.82;;;6.63;;
21769;SDS011;11046;49.558;8.674;2023-03-21T08:18:30;9.88;;;6.32;;
21769;SDS011;11046;49.558;8.674;2023-03-21T08:21:30;15.98;;;6.57;;
21769;SDS011;11046;49.558;8.674;2023-03-21T08:24:31;11.50;;;6.65;;
21769;SDS011;11046;49.558;8.674;2023-03-21T08:27:33;10.52;;;6.15;;
21769;SDS011;11046;49.558;8.674;2023-03-21T08:30:34;12.48;;;5.38;;
21769;SDS011;11046;49.558;8.674;2023-03-21T08:33:36;8.45;;;5.20;;
21769;SDS011;11046;49.558;8.674;2023-03-21T08:36:37;10.18;;;5.32;;
21769;SDS011;11046;49.558;8.674;2023-03-21T08:39:37;9.32;;;5.20;;
21769;SDS011;11046;49.558;8.674;2023-03-21T08:42:38;10.55;;;5.35;;
21769;SDS011;11046;49.558;8.674;2023-03-21T08:45:40;10.68;;;5.20;;
21769;SDS011;11046;49.558;8.674;2023-03-21T08:48:41;10.65;;;4.68;;
21769;SDS011;11046;49.558;8.674;2023-03-21T08:51:41;9.45;;;4.80;;
21769;SDS011;11046;49.558;8.674;2023-03-21T08:54:44;12.50;;;4.40;;
21769;SDS011;11046;49.558;8.674;2023-03-21T08:57:45;9.63;;;4.53;;
21769;SDS011;11046;49.558;8.674;2023-03-21T09:00:45;9.98;;;4.65;;
21769;SDS011;11046;49.558;8.674;2023-03-21T09:03:46;12.40;;;5.03;;
21769;SDS011;11046;49.558;8.674;2023-03-21T09:06:46;7.72;;;4.93;;
21769;SDS011;11046;49.558;8.674;2023-03-21T09:09:50;10.02;;;5.13;;
21769;SDS011;11046;49.558;8.674;2023-03-21T09:12:53;8.32;;;4.43;;
21769;SDS011;11046;49.558;8.674;2023-03-21T09:15:54;10.70;;;4.15;;
21769;SDS011;11046;49.558;8.674;2023-03-21T09:18:57;9.82;;;4.53;;
21769;SDS011;11046;49.558;8.674;2023-03-21T09:21:58;8.27;;;4.25;;
21769;SDS011;11046;49.558;8.674;2023-03-21T09:24:58;7.53;;;4.15;;
21769;SDS011;11046;49.558;8.674;2023-03-21T09:28:07;7.38;;;4.70;;
21769;SDS011;11046;49.558;8.674;2023-03-21T09:31:08;11.65;;;4.82;;
21769;SDS011;11046;49.558;8.674;2023-03-21T09:34:11;9.18;;;4.70;;
21769;SDS011;11046;49.558;8.674;2023-03-21T09:37:14;9.57;;;5.22;;
21769;SDS011;11046;49.558;8.674;2023-03-21T09:40:16;9.60;;;4.88;;
21769;SDS011;11046;49.558;8.674;2023-03-21T09:50:34;12.23;;;5.53;;
21769;SDS011;11046;49.558;8.674;2023-03-21T09:53:37;8.13;;;5.47;;
21769;SDS011;11046;49.558;8.674;2023-03-21T09:56:41;9.40;;;5.28;;
21769;SDS011;11046;49.558;8.674;2023-03-21T09:59:44;13.23;;;5.80;;
21769;SDS011;11046;49.558;8.674;2023-03-21T10:02:47;8.45;;;5.75;;
21769;SDS011;11046;49.558;8.674;2023-03-21T10:05:52;9.35;;;5.82;;
21769;SDS011;11046;49.558;8.674;2023-03-21T10:09:01;11.20;;;5.95;;
21769;SDS011;11046;49.558;8.674;2023-03-21T10:12:06;11.82;;;6.32;;
21769;SDS011;11046;49.558;8.674;2023-03-21T10:15:16;12.88;;;6.22;;
21769;SDS011;11046;49.558;8.674;2023-03-21T10:18:23;12.48;;;6.30;;
21769;SDS011;11046;49.558;8.674;2023-03-21T10:21:27;8.90;;;6.10;;
21769;SDS011;11046;49.558;8.674;2023-03-21T10:24:31;13.93;;;6.57;;
21769;SDS011;11046;49.558;8.674;2023-03-21T10:27:35;11.68;;;6.55;;
21769;SDS011;11046;49.558;8.674;2023-03-21T10:31:10;11.63;;;6.43;;
21769;SDS011;11046;49.558;8.674;2023-03-21T10:34:15;12.23;;;6.18;;
21769;SDS011;11046;49.558;8.674;2023-03-21T10:37:24;9.82;;;5.57;;
21769;SDS011;11046;49.558;8.674;2023-03-21T10:40:29;8.23;;;5.70;;
21769;SDS011;11046;49.558;8.674;2023-03-21T10:43:34;9.75;;;5.97;;
21769;SDS011;11046;49.558;8.674;2023-03-21T10:46:55;9.00;;;5.20;;
21769;SDS011;11046;49.558;8.674;2023-03-21T10:50:00;10.70;;;5.60;;
21769;SDS011;11046;49.558;8.674;2023-03-21T10:53:05;8.52;;;5.28;;
21769;SDS011;11046;49.558;8.674;2023-03-21T10:56:52;8.15;;;5.20;;
21769;SDS011;11046;49.558;8.674;2023-03-21T11:00:02;8.98;;;4.97;;
21769;SDS011;11046;49.558;8.674;2023-03-21T11:03:26;7.22;;;4.82;;
21769;SDS011;11046;49.558;8.674;2023-03-21T11:06:36;7.47;;;4.88;;
21769;SDS011;11046;49.558;8.674;2023-03-21T11:09:47;7.13;;;4.95;;
21769;SDS011;11046;49.558;8.674;2023-03-21T11:13:02;7.65;;;4.28;;
21769;SDS011;11046;49.558;8.674;2023-03-21T11:16:11;7.50;;;3.90;;
21769;SDS011;11046;49.558;8.674;2023-03-21T11:19:25;7.38;;;4.28;;
21769;SDS011;11046;49.558;8.674;2023-03-21T11:22:40;7.25;;;4.25;;
21769;SDS011;11046;49.558;8.674;2023-03-21T11:25:48;6.20;;;3.55;;
21769;SDS011;11046;49.558;8.674;2023-03-21T11:28:52;4.88;;;3.25;;
21769;SDS011;11046;49.558;8.674;2023-03-21T11:32:10;6.78;;;3.60;;
21769;SDS011;11046;49.558;8.674;2023-03-21T11:35:34;6.03;;;3.63;;
21769;SDS011;11046;49.558;8.674;2023-03-21T11:38:38;9.77;;;3.70;;
21769;SDS011;11046;49.558;8.674;2023-03-21T11:41:40;6.18;;;3.70;;
21769;SDS011;11046;49.558;8.674;2023-03-21T11:44:42;5.80;;;4.07;;
21769;SDS011;11046;49.558;8.674;2023-03-21T11:47:49;11.15;;;4.28;;
21769;SDS011;11046;49.558;8.674;2023-03-21T11:50:58;6.18;;;3.58;;
21769;SDS011;11046;49.558;8.674;2023-03-21T11:54:05;7.50;;;3.70;;
21769;SDS011;11046;49.558;8.674;2023-03-21T11:57:14;6.25;;;3.65;;
21769;SDS011;11046;49.558;8.674;2023-03-21T12:00:24;8.68;;;3.95;;
21769;SDS011;11046;49.558;8.674;2023-03-21T12:06:40;5.40;;;3.50;;
21769;SDS011;11046;49.558;8.674;2023-03-21T12:13:21;8.80;;;3.75;;
21769;SDS011;11046;49.558;8.674;2023-03-21T12:26:27;5.65;;;3.50;;
21769;SDS011;11046;49.558;8.674;2023-03-21T12:33:07;4.68;;;3.30;;
21769;SDS011;11046;49.558;8.674;2023-03-21T12:39:36;6.13;;;3.25;;
21769;SDS011;11046;49.558;8.674;2023-03-21T12:46:18;6.22;;;3.80;;
21769;SDS011;11046;49.558;8.674;2023-03-21T12:49:31;5.57;;;3.42;;
21769;SDS011;11046;49.558;8.674;2023-03-21T12:52:36;7.47;;;3.63;;
21769;SDS011;11046;49.558;8.674;2023-03-21T12:55:40;6.13;;;3.35;;
21769;SDS011;11046;49.558;8.674;2023-03-21T12:58:46;5.85;;;3.88;;
21769;SDS011;11046;49.558;8.674;2023-03-21T13:01:57;4.90;;;3.10;;
21769;SDS011;11046;49.558;8.674;2023-03-21T13:05:19;4.95;;;3.70;;
21769;SDS011;11046;49.558;8.674;2023-03-21T13:08:40;6.78;;;3.80;;
21769;SDS011;11046;49.558;8.674;2023-03-21T13:11:54;5.07;;;2.88;;
21769;SDS011;11046;49.558;8.674;2023-03-21T13:15:03;6.38;;;2.80;;
21769;SDS011;11046;49.558;8.674;2023-03-21T13:21:33;6.40;;;3.45;;
21769;SDS011;11046;49.558;8.674;2023-03-21T13:24:41;6.15;;;3.00;;
21769;SDS011;11046;49.558;8.674;2023-03-21T13:28:12;5.38;;;3.00;;
21769;SDS011;11046;49.558;8.674;2023-03-21T13:31:24;6.05;;;2.80;;
21769;SDS011;11046;49.558;8.674;2023-03-21T13:34:26;4.40;;;2.95;;
21769;SDS011;11046;49.558;8.674;2023-03-21T13:37:28;6.40;;;3.22;;
21769;SDS011;11046;49.558;8.674;2023-03-21T13:40:34;6.25;;;3.13;;
21769;SDS011;11046;49.558;8.674;2023-03-21T13:46:50;7.03;;;3.30;;
21769;SDS011;11046;49.558;8.674;2023-03-21T13:53:38;5.65;;;3.15;;
21769;SDS011;11046;49.558;8.674;2023-03-21T13:59:43;4.53;;;3.40;;
21769;SDS011;11046;49.558;8.674;2023-03-21T14:02:52;5.65;;;3.60;;
21769;SDS011;11046;49.558;8.674;2023-03-21T14:05:57;6.55;;;3.70;;
21769;SDS011;11046;49.558;8.674;2023-03-21T14:08:58;6.13;;;3.47;;
21769;SDS011;11046;49.558;8.674;2023-03-21T14:12:00;6.63;;;3.28;;
21769;SDS011;11046;49.558;8.674;2023-03-21T14:15:07;6.65;;;3.60;;
21769;SDS011;11046;49.558;8.674;2023-03-21T14:18:20;8.00;;;3.72;;
21769;SDS011;11046;49.558;8.674;2023-03-21T14:21:24;5.93;;;3.80;;
21769;SDS011;11046;49.558;8.674;2023-03-21T14:24:27;4.80;;;3.50;;
21769;SDS011;11046;49.558;8.674;2023-03-21T14:27:28;7.07;;;3.80;;
21769;SDS011;11046;49.558;8.674;2023-03-21T14:30:32;12.18;;;3.85;;
21769;SDS011;11046;49.558;8.674;2023-03-21T14:33:37;9.77;;;4.15;;
21769;SDS011;11046;49.558;8.674;2023-03-21T14:36:40;6.35;;;4.03;;
21769;SDS011;11046;49.558;8.674;2023-03-21T14:39:41;7.53;;;4.20;;
21769;SDS011;11046;49.558;8.674;2023-03-21T14:42:44;8.20;;;4.10;;
21769;SDS011;11046;49.558;8.674;2023-03-21T14:45:46;8.88;;;4.05;;
21769;SDS011;11046;49.558;8.674;2023-03-21T14:48:51;8.32;;;4.18;;
21769;SDS011;11046;49.558;8.674;2023-03-21T14:51:53;6.53;;;3.65;;
21769;SDS011;11046;49.558;8.674;2023-03-21T14:54:55;8.45;;;3.80;;
21769;SDS011;11046;49.558;8.674;2023-03-21T14:57:57;11.55;;;4.10;;
21769;SDS011;11046;49.558;8.674;2023-03-21T15:01:01;8.98;;;3.80;;
21769;SDS011;11046;49.558;8.674;2023-03-21T15:04:04;8.18;;;4.15;;
21769;SDS011;11046;49.558;8.674;2023-03-21T15:07:05;9.38;;;3.95;;
21769;SDS011;11046;49.558;8.674;2023-03-21T15:10:13;8.45;;;3.67;;
21769;SDS011;11046;49.558;8.674;2023-03-21T15:13:19;8.73;;;3.88;;
21769;SDS011;11046;49.558;8.674;2023-03-21T15:16:24;7.63;;;3.78;;
21769;SDS011;11046;49.558;8.674;2023-03-21T15:19:30;6.95;;;3.97;;
21769;SDS011;11046;49.558;8.674;2023-03-21T15:22:37;5.97;;;3.70;;
21769;SDS011;11046;49.558;8.674;2023-03-21T15:25:40;6.05;;;3.40;;
21769;SDS011;11046;49.558;8.674;2023-03-21T15:28:43;6.13;;;3.75;;
21769;SDS011;11046;49.558;8.674;2023-03-21T15:31:46;5.57;;;3.40;;
21769;SDS011;11046;49.558;8.674;2023-03-21T15:34:47;4.53;;;2.97;;
21769;SDS011;11046;49.558;8.674;2023-03-21T15:37:51;4.00;;;3.00;;
21769;SDS011;11046;49.558;8.674;2023-03-21T15:44:20;7.70;;;3.33;;
21769;SDS011;11046;49.558;8.674;2023-03-21T15:51:00;5.13;;;3.08;;
21769;SDS011;11046;49.558;8.674;2023-03-21T15:54:04;6.55;;;3.00;;
21769;SDS011;11046;49.558;8.674;2023-03-21T15:57:22;6.72;;;3.00;;
21769;SDS011;11046;49.558;8.674;2023-03-21T16:03:42;4.65;;;2.70;;
21769;SDS011;11046;49.558;8.674;2023-03-21T16:10:37;7.83;;;3.40;;
21769;SDS011;11046;49.558;8.674;2023-03-21T16:13:37;10.03;;;3.40;;
21769;SDS011;11046;49.558;8.674;2023-03-21T16:16:38;4.03;;;2.95;;
21769;SDS011;11046;49.558;8.674;2023-03-21T16:19:39;5.97;;;3.40;;
21769;SDS011;11046;49.558;8.674;2023-03-21T16:22:42;6.25;;;3.22;;
21769;SDS011;11046;49.558;8.674;2023-03-21T16:25:44;3.95;;;2.90;;
21769;SDS011;11046;49.558;8.674;2023-03-21T16:28:46;5.80;;;2.90;;
21769;SDS011;11046;49.558;8.674;2023-03-21T16:31:48;6.35;;;3.30;;
21769;SDS011;11046;49.558;8.674;2023-03-21T16:34:49;4.78;;;3.30;;
21769;SDS011;11046;49.558;8.674;2023-03-21T16:37:52;4.80;;;2.85;;
21769;SDS011;11046;49.558;8.674;2023-03-21T16:40:53;5.28;;;2.97;;
21769;SDS011;11046;49.558;8.674;2023-03-21T16:43:53;6.30;;;2.75;;
21769;SDS011;11046;49.558;8.674;2023-03-21T16:46:54;8.73;;;2.80;;
21769;SDS011;11046;49.558;8.674;2023-03-21T16:49:55;5.00;;;2.63;;
21769;SDS011;11046;49.558;8.674;2023-03-21T16:52:56;4.27;;;2.43;;
21769;SDS011;11046;49.558;8.674;2023-03-21T16:55:57;4.88;;;2.75;;
21769;SDS011;11046;49.558;8.674;2023-03-21T16:59:01;5.97;;;2.80;;
21769;SDS011;11046;49.558;8.674;2023-03-21T17:02:13;5.00;;;2.90;;
21769;SDS011;11046;49.558;8.674;2023-03-21T17:05:16;3.77;;;2.63;;
21769;SDS011;11046;49.558;8.674;2023-03-21T17:08:17;3.65;;;2.53;;
21769;SDS011;11046;49.558;8.674;2023-03-21T17:11:20;3.63;;;2.45;;
21769;SDS011;11046;49.558;8.674;2023-03-21T17:14:22;6.30;;;3.07;;
21769;SDS011;11046;49.558;8.674;2023-03-21T17:17:22;9.57;;;4.13;;
21769;SDS011;11046;49.558;8.674;2023-03-21T17:20:24;8.53;;;4.97;;
21769;SDS011;11046;49.558;8.674;2023-03-21T17:23:28;18.20;;;4.88;;
21769;SDS011;11046;49.558;8.674;2023-03-21T17:26:29;13.57;;;4.87;;
21769;SDS011;11046;49.558;8.674;2023-03-21T17:29:30;12.33;;;6.73;;
21769;SDS011;11046;49.558;8.674;2023-03-21T17:32:30;9.45;;;5.45;;
21769;SDS011;11046;49.558;8.674;2023-03-21T17:35:31;8.77;;;4.73;;
21769;SDS011;11046;49.558;8.674;2023-03-21T17:38:31;9.20;;;4.53;;
21769;SDS011;11046;49.558;8.674;2023-03-21T17:41:33;5.93;;;3.17;;
21769;SDS011;11046;49.558;8.674;2023-03-21T17:44:34;4.33;;;2.90;;
21769;SDS011;11046;49.558;8.674;2023-03-21T17:47:35;5.50;;;4.27;;
21769;SDS011;11046;49.558;8.674;2023-03-21T17:50:38;12.83;;;5.07;;
21769;SDS011;11046;49.558;8.674;2023-03-21T17:53:40;11.77;;;6.10;;
21769;SDS011;11046;49.558;8.674;2023-03-21T17:56:42;10.00;;;5.50;;
21769;SDS011;11046;49.558;8.674;2023-03-21T17:59:43;12.77;;;6.33;;
21769;SDS011;11046;49.558;8.674;2023-03-21T18:02:45;8.27;;;4.60;;
21769;SDS011;11046;49.558;8.674;2023-03-21T18:05:47;12.00;;;4.43;;
21769;SDS011;11046;49.558;8.674;2023-03-21T18:08:48;10.17;;;5.37;;
21769;SDS011;11046;49.558;8.674;2023-03-21T18:11:51;7.50;;;5.20;;
21769;SDS011;11046;49.558;8.674;2023-03-21T18:14:52;7.10;;;5.20;;
21769;SDS011;11046;49.558;8.674;2023-03-21T18:17:53;8.13;;;4.30;;
21769;SDS011;11046;49.558;8.674;2023-03-21T18:20:55;6.20;;;3.97;;
21769;SDS011;11046;49.558;8.674;2023-03-21T18:23:56;6.33;;;3.67;;
21769;SDS011;11046;49.558;8.674;2023-03-21T18:26:58;6.07;;;4.20;;
21769;SDS011;11046;49.558;8.674;2023-03-21T18:29:59;7.07;;;4.47;;
21769;SDS011;11046;49.558;8.674;2023-03-21T18:32:59;9.93;;;5.20;;
21769;SDS011;11046;49.558;8.674;2023-03-21T18:36:00;9.47;;;5.70;;
21769;SDS011;11046;49.558;8.674;2023-03-21T18:39:02;9.07;;;5.03;;
21769;SDS011;11046;49.558;8.674;2023-03-21T18:42:04;9.40;;;6.13;;
21769;SDS011;11046;49.558;8.674;2023-03-21T18:45:06;6.63;;;4.57;;
21769;SDS011;11046;49.558;8.674;2023-03-21T18:48:09;8.87;;;5.30;;
21769;SDS011;11046;49.558;8.674;2023-03-21T18:51:13;11.27;;;4.50;;
21769;SDS011;11046;49.558;8.674;2023-03-21T18:54:16;7.37;;;4.20;;
21769;SDS011;11046;49.558;8.674;2023-03-21T18:57:18;6.80;;;4.63;;
21769;SDS011;11046;49.558;8.674;2023-03-21T19:00:20;7.87;;;4.70;;
21769;SDS011;11046;49.558;8.674;2023-03-21T19:03:22;5.73;;;4.43;;
21769;SDS011;11046;49.558;8.674;2023-03-21T19:06:24;8.20;;;4.77;;
21769;SDS011;11046;49.558;8.674;2023-03-21T19:09:26;9.90;;;5.00;;
21769;SDS011;11046;49.558;8.674;2023-03-21T19:12:26;12.30;;;4.63;;
21769;SDS011;11046;49.558;8.674;2023-03-21T19:15:27;7.13;;;4.87;;
21769;SDS011;11046;49.558;8.674;2023-03-21T19:18:29;8.47;;;4.83;;
21769;SDS011;11046;49.558;8.674;2023-03-21T19:21:30;8.37;;;5.63;;
21769;SDS011;11046;49.558;8.674;2023-03-21T19:24:32;9.97;;;4.70;;
21769;SDS011;11046;49.558;8.674;2023-03-21T19:27:34;9.67;;;5.47;;
21769;SDS011;11046;49.558;8.674;2023-03-21T19:30:36;8.37;;;4.90;;
21769;SDS011;11046;49.558;8.674;2023-03-21T19:33:37;7.80;;;5.23;;
21769;SDS011;11046;49.558;8.674;2023-03-21T19:36:39;7.37;;;4.33;;
21769;SDS011;11046;49.558;8.674;2023-03-21T19:39:45;10.37;;;5.20;;
21769;SDS011;11046;49.558;8.674;2023-03-21T19:42:45;8.63;;;5.37;;
21769;SDS011;11046;49.558;8.674;2023-03-21T19:45:47;8.03;;;4.77;;
21769;SDS011;11046;49.558;8.674;2023-03-21T19:48:48;7.90;;;4.90;;